Time;durP1;ratioP1;P1;durP2;ratioP2;P2;SDS_P1;SDS_P2;PMS_P1;PMS_P2;Temp;Humidity;BMP_temperature;BMP_pressure;BME280_temperature;BME280_humidity;BME280_pressure;Samples;Min_cycle;Max_cycle;Signal;HPM_P1;HPM_P2
2023/04/28 00:00:27;;;;;;;17.48;12.90;;;6.60;99.90;;;;;;5051192;28;20118;-45
2023/04/28 00:02:52;;;;;;;15.43;11.82;;;6.60;99.90;;;;;;5028516;28;20435;-39
2023/04/28 00:05:19;;;;;;;14.75;11.02;;;6.50;99.90;;;;;;5036702;28;20128;-36
2023/04/28 00:07:45;;;;;;;15.27;12.05;;;6.50;99.90;;;;;;5036930;28;20040;-42
2023/04/28 00:10:11;;;;;;;17.30;11.48;;;6.50;99.90;;;;;;5029779;28;20041;-40
2023/04/28 00:12:36;;;;;;;15.57;12.52;;;6.60;99.90;;;;;;5026978;28;20049;-36
2023/04/28 00:15:03;;;;;;;15.52;12.25;;;6.50;99.90;;;;;;5036295;28;20045;-41
2023/04/28 00:17:28;;;;;;;15.77;12.15;;;6.50;99.90;;;;;;5022977;28;20080;-38
2023/04/28 00:19:54;;;;;;;17.48;12.38;;;6.50;99.90;;;;;;5035152;28;20131;-38
2023/04/28 00:22:20;;;;;;;16.17;11.73;;;6.50;99.90;;;;;;5033621;28;20087;-39
2023/04/28 00:24:46;;;;;;;15.95;11.73;;;6.40;99.90;;;;;;5031488;28;20417;-34
2023/04/28 00:27:12;;;;;;;17.65;12.43;;;6.40;99.90;;;;;;5032183;28;20161;-38
2023/04/28 00:29:37;;;;;;;20.23;12.95;;;6.40;99.90;;;;;;5028761;28;20067;-37
2023/04/28 00:32:03;;;;;;;14.70;11.63;;;6.40;99.90;;;;;;5033068;28;20072;-40
2023/04/28 00:34:32;;;;;;;14.65;12.25;;;6.40;99.90;;;;;;5036059;28;20040;-37
2023/04/28 00:36:58;;;;;;;16.27;12.43;;;6.40;99.90;;;;;;5035790;28;20120;-35
2023/04/28 00:39:25;;;;;;;15.18;11.32;;;6.40;99.90;;;;;;5026813;28;20389;-37
2023/04/28 00:41:51;;;;;;;17.55;11.63;;;6.30;99.90;;;;;;5028850;28;20045;-36
2023/04/28 00:44:16;;;;;;;13.52;11.23;;;6.40;99.90;;;;;;5034644;28;20323;-38
2023/04/28 00:46:43;;;;;;;15.48;11.32;;;6.40;99.90;;;;;;5035771;28;20124;-42
2023/04/28 00:49:09;;;;;;;15.93;11.80;;;6.30;99.90;;;;;;5033655;28;20534;-38
2023/04/28 00:51:35;;;;;;;13.60;11.25;;;6.30;99.90;;;;;;5029421;28;20041;-43
2023/04/28 00:54:01;;;;;;;14.63;11.45;;;6.30;99.90;;;;;;5035755;28;20485;-36
2023/04/28 00:56:30;;;;;;;15.02;11.38;;;6.30;99.90;;;;;;5036095;28;20403;-45
2023/04/28 00:58:56;;;;;;;17.08;11.80;;;6.30;99.90;;;;;;5035890;28;20082;-40
2023/04/28 01:01:22;;;;;;;14.63;10.73;;;6.20;99.90;;;;;;5050533;28;20554;-39
2023/04/28 01:03:48;;;;;;;19.42;10.73;;;6.20;99.90;;;;;;5034091;28;20079;-37
2023/04/28 01:06:15;;;;;;;14.63;11.40;;;6.20;99.90;;;;;;5029156;28;20041;-38
2023/04/28 01:08:42;;;;;;;15.82;11.40;;;6.10;99.90;;;;;;5026837;28;20387;-35
2023/04/28 01:11:13;;;;;;;12.95;11.10;;;6.10;99.90;;;;;;5021582;28;20043;-38
2023/04/28 01:13:45;;;;;;;14.32;10.65;;;6.10;99.90;;;;;;5119837;27;20849;-39
2023/04/28 01:16:11;;;;;;;12.80;10.35;;;6.10;99.90;;;;;;5112991;27;20201;-36
2023/04/28 01:18:37;;;;;;;13.20;10.38;;;6.10;99.90;;;;;;5113384;27;20058;-35
2023/04/28 01:21:03;;;;;;;17.63;10.98;;;6.10;99.90;;;;;;5112106;28;20039;-42
2023/04/28 01:23:29;;;;;;;16.55;10.93;;;6.10;99.90;;;;;;5112738;27;20035;-36
2023/04/28 01:25:55;;;;;;;15.40;11.85;;;6.00;99.90;;;;;;5112009;27;20453;-40
2023/04/28 01:28:21;;;;;;;15.07;10.80;;;6.00;99.90;;;;;;5112570;27;20074;-37
2023/04/28 01:30:46;;;;;;;13.70;10.75;;;6.00;99.90;;;;;;5111547;27;20100;-37
2023/04/28 01:33:12;;;;;;;12.95;10.55;;;6.00;99.90;;;;;;5112580;27;20040;-36
2023/04/28 01:35:38;;;;;;;13.75;10.73;;;6.00;99.90;;;;;;5111876;27;20201;-37
2023/04/28 01:38:03;;;;;;;12.68;10.45;;;6.00;99.90;;;;;;5113054;28;20055;-42
2023/04/28 01:40:29;;;;;;;16.80;10.77;;;5.90;99.90;;;;;;5102311;27;20479;-37
2023/04/28 01:42:55;;;;;;;13.75;10.23;;;5.90;99.90;;;;;;5113292;28;20392;-36
2023/04/28 01:45:20;;;;;;;13.27;11.35;;;5.90;99.90;;;;;;5111545;27;20047;-40
2023/04/28 01:47:46;;;;;;;13.55;10.52;;;5.90;99.90;;;;;;5112491;27;20313;-42
2023/04/28 01:50:11;;;;;;;13.55;10.73;;;5.90;99.90;;;;;;5111175;27;20644;-40
2023/04/28 01:52:37;;;;;;;14.93;10.35;;;5.90;99.90;;;;;;5111776;28;20052;-38
2023/04/28 01:55:03;;;;;;;13.43;11.10;;;5.80;99.90;;;;;;5111637;27;20039;-39
2023/04/28 01:57:29;;;;;;;15.52;11.07;;;5.80;99.90;;;;;;5112103;27;20411;-40
2023/04/28 01:59:54;;;;;;;12.95;10.45;;;5.80;99.90;;;;;;5111085;27;20103;-40
2023/04/28 02:02:20;;;;;;;14.02;11.38;;;5.80;99.90;;;;;;5112177;27;20040;-39
2023/04/28 02:04:46;;;;;;;16.90;11.68;;;5.80;99.90;;;;;;5111446;27;20326;-38
2023/04/28 02:07:11;;;;;;;14.55;11.45;;;5.80;99.90;;;;;;5112019;27;20367;-40
2023/04/28 02:09:37;;;;;;;13.95;10.88;;;5.80;99.90;;;;;;5107819;28;20066;-40
2023/04/28 02:12:03;;;;;;;12.50;11.02;;;5.80;99.90;;;;;;5111804;28;20054;-39
2023/04/28 02:14:31;;;;;;;15.25;11.65;;;5.80;99.90;;;;;;5110925;27;20469;-39
2023/04/28 02:17:01;;;;;;;14.02;11.30;;;5.80;99.90;;;;;;5112025;27;20120;-44
2023/04/28 02:19:27;;;;;;;14.82;11.55;;;5.80;99.90;;;;;;5111864;27;20086;-40
2023/04/28 02:21:53;;;;;;;14.00;11.05;;;5.90;99.90;;;;;;5103410;28;20521;-36
2023/04/28 02:24:18;;;;;;;17.48;11.95;;;5.90;99.90;;;;;;5087466;28;20385;-38
2023/04/28 02:26:44;;;;;;;15.13;11.98;;;5.90;99.90;;;;;;5098860;28;20572;-37
2023/04/28 02:29:10;;;;;;;15.55;11.90;;;5.90;99.90;;;;;;5098847;28;20122;-43
2023/04/28 02:31:35;;;;;;;13.75;11.30;;;5.90;99.90;;;;;;5097419;28;20043;-40
2023/04/28 02:34:01;;;;;;;14.77;11.13;;;5.90;99.90;;;;;;5096958;28;20062;-35
2023/04/28 02:36:27;;;;;;;19.63;12.60;;;5.90;99.90;;;;;;5098902;28;20085;-41
2023/04/28 02:38:53;;;;;;;15.00;12.10;;;5.90;99.90;;;;;;5098278;28;20047;-40
2023/04/28 02:41:18;;;;;;;15.40;11.38;;;5.90;99.90;;;;;;5097973;28;20572;-36
2023/04/28 02:43:44;;;;;;;16.65;11.82;;;6.00;99.90;;;;;;5097243;28;20043;-37
2023/04/28 02:46:10;;;;;;;17.35;11.15;;;6.00;99.90;;;;;;5097825;28;20047;-39
2023/04/28 02:48:36;;;;;;;16.30;12.32;;;6.00;99.90;;;;;;5097731;28;20051;-37
2023/04/28 02:51:02;;;;;;;16.10;10.27;;;5.90;99.90;;;;;;5097463;28;20089;-39
2023/04/28 02:53:28;;;;;;;15.57;12.20;;;6.00;99.90;;;;;;5097533;28;20046;-38
2023/04/28 02:55:53;;;;;;;22.13;12.73;;;6.00;99.90;;;;;;5097973;28;20409;-38
2023/04/28 02:58:19;;;;;;;14.52;12.10;;;6.00;99.90;;;;;;5098372;28;20044;-39
2023/04/28 03:00:45;;;;;;;16.35;11.65;;;6.00;99.90;;;;;;5097076;28;20481;-35
2023/04/28 03:03:11;;;;;;;15.20;12.35;;;6.00;99.90;;;;;;5097242;27;20069;-38
2023/04/28 03:05:37;;;;;;;17.58;12.18;;;6.00;99.90;;;;;;5097330;28;20158;-35
2023/04/28 03:08:03;;;;;;;14.68;13.00;;;6.00;99.90;;;;;;5089131;28;20054;-42
2023/04/28 03:10:28;;;;;;;17.58;13.65;;;6.00;99.90;;;;;;5086377;28;20036;-40
2023/04/28 03:12:54;;;;;;;15.48;12.48;;;6.00;99.90;;;;;;5091408;28;20783;-40
2023/04/28 03:15:19;;;;;;;15.55;12.35;;;6.00;99.90;;;;;;5091573;28;20514;-46
2023/04/28 03:17:45;;;;;;;17.65;12.48;;;6.00;99.90;;;;;;5096491;28;20056;-35
2023/04/28 03:20:11;;;;;;;17.33;12.35;;;6.00;99.90;;;;;;5096793;28;20039;-41
2023/04/28 03:22:37;;;;;;;15.35;12.57;;;6.00;99.90;;;;;;5096686;28;20047;-40
2023/04/28 03:25:04;;;;;;;16.52;11.40;;;6.00;99.90;;;;;;5096411;28;20054;-43
2023/04/28 03:27:30;;;;;;;18.27;13.50;;;6.00;99.90;;;;;;5096648;28;20047;-40
2023/04/28 03:29:55;;;;;;;17.17;13.23;;;6.00;99.90;;;;;;5096411;28;20043;-39
2023/04/28 03:32:21;;;;;;;18.40;14.18;;;6.00;99.90;;;;;;5096618;28;20054;-38
2023/04/28 03:34:47;;;;;;;19.23;13.20;;;6.00;99.90;;;;;;5096247;28;20474;-34
2023/04/28 03:37:12;;;;;;;19.30;14.68;;;6.00;99.90;;;;;;5080557;28;20118;-38
2023/04/28 03:39:38;;;;;;;20.73;14.02;;;6.00;99.90;;;;;;5095490;28;20051;-35
2023/04/28 03:42:04;;;;;;;18.63;13.63;;;6.00;99.90;;;;;;5095994;28;20050;-39
2023/04/28 03:44:30;;;;;;;18.48;14.20;;;6.00;99.90;;;;;;5096151;28;20044;-36
2023/04/28 03:46:55;;;;;;;20.23;14.23;;;6.00;99.90;;;;;;5096574;28;20044;-40
2023/04/28 03:49:21;;;;;;;16.75;14.77;;;6.00;99.90;;;;;;5097083;28;20522;-35
2023/04/28 03:51:48;;;;;;;17.17;14.13;;;6.00;99.90;;;;;;5095845;28;20130;-38
2023/04/28 03:54:14;;;;;;;20.58;14.20;;;6.00;99.90;;;;;;5096548;28;20100;-39
2023/04/28 03:56:40;;;;;;;17.33;13.80;;;6.00;99.90;;;;;;5096669;28;20039;-37
2023/04/28 03:59:05;;;;;;;18.40;14.48;;;6.00;99.90;;;;;;5096351;28;20078;-41
2023/04/28 04:01:31;;;;;;;20.10;14.05;;;6.00;99.90;;;;;;5091474;28;20419;-36
2023/04/28 04:03:57;;;;;;;20.70;15.77;;;6.00;99.90;;;;;;5108854;27;20066;-43
2023/04/28 04:06:22;;;;;;;20.67;14.75;;;6.00;99.90;;;;;;5094050;28;20127;-39
2023/04/28 04:08:48;;;;;;;19.25;14.60;;;6.00;99.90;;;;;;5096150;28;20527;-35
2023/04/28 04:11:14;;;;;;;19.48;14.30;;;6.00;99.90;;;;;;5093267;28;20048;-40
2023/04/28 04:13:39;;;;;;;19.95;15.13;;;6.00;99.90;;;;;;5087486;28;20465;-41
2023/04/28 04:16:06;;;;;;;19.25;14.65;;;6.00;99.90;;;;;;5096310;28;20483;-42
2023/04/28 04:18:31;;;;;;;19.27;15.23;;;6.00;99.90;;;;;;5096117;28;20042;-38
2023/04/28 04:20:57;;;;;;;19.63;15.68;;;6.00;99.90;;;;;;5094529;28;20056;-42
2023/04/28 04:23:23;;;;;;;21.02;16.00;;;6.00;99.90;;;;;;5097005;28;20410;-37
2023/04/28 04:25:49;;;;;;;26.17;15.70;;;6.00;99.90;;;;;;5095498;28;20098;-40
2023/04/28 04:28:15;;;;;;;18.60;16.13;;;6.00;99.90;;;;;;5096022;28;20100;-36
2023/04/28 04:30:41;;;;;;;21.58;15.23;;;6.00;99.90;;;;;;5081315;28;20044;-40
2023/04/28 04:33:07;;;;;;;20.77;15.32;;;6.00;99.90;;;;;;5084543;28;20040;-35
2023/04/28 04:35:33;;;;;;;23.20;16.15;;;6.00;99.90;;;;;;5093840;28;20048;-43
2023/04/28 04:38:00;;;;;;;24.55;16.65;;;6.00;99.90;;;;;;5095100;28;20401;-37
2023/04/28 04:40:25;;;;;;;21.85;16.27;;;6.00;99.90;;;;;;5094369;28;20043;-38
2023/04/28 04:42:51;;;;;;;22.67;16.25;;;6.00;99.90;;;;;;5095264;28;20046;-35
2023/04/28 04:45:17;;;;;;;21.38;15.82;;;6.00;99.90;;;;;;5086751;28;20479;-39
2023/04/28 04:47:43;;;;;;;23.88;16.00;;;6.00;99.90;;;;;;5095374;28;20812;-44
2023/04/28 04:50:10;;;;;;;21.10;15.63;;;6.10;99.90;;;;;;5094327;28;20054;-39
2023/04/28 04:52:36;;;;;;;22.40;15.85;;;6.00;99.90;;;;;;5077434;28;20485;-37
2023/04/28 04:55:02;;;;;;;20.45;15.82;;;6.10;99.90;;;;;;5094460;28;20046;-35
2023/04/28 04:57:27;;;;;;;19.45;15.35;;;6.10;99.90;;;;;;5094335;28;20089;-40
2023/04/28 04:59:53;;;;;;;22.33;16.02;;;6.10;99.90;;;;;;5092303;28;20343;-40
2023/04/28 05:02:19;;;;;;;23.40;16.42;;;6.10;99.90;;;;;;5095893;28;20046;-39
2023/04/28 05:04:44;;;;;;;22.17;16.55;;;6.20;99.90;;;;;;5094606;28;20047;-38
2023/04/28 05:07:10;;;;;;;22.35;16.52;;;6.20;99.90;;;;;;5095050;28;20073;-36
2023/04/28 05:09:36;;;;;;;24.98;17.73;;;6.20;99.90;;;;;;5093990;28;20046;-42
2023/04/28 05:12:01;;;;;;;20.80;17.00;;;6.20;99.90;;;;;;5095317;28;20028;-39
2023/04/28 05:14:27;;;;;;;24.33;18.20;;;6.20;99.90;;;;;;5094102;28;20150;-40
2023/04/28 05:16:53;;;;;;;23.83;17.95;;;6.30;99.90;;;;;;5085180;28;20035;-42
2023/04/28 05:19:18;;;;;;;25.02;17.70;;;6.30;99.90;;;;;;5094713;28;20537;-44
2023/04/28 05:21:46;;;;;;;24.33;17.55;;;6.30;99.90;;;;;;5082044;28;20044;-37
2023/04/28 05:24:13;;;;;;;23.75;16.60;;;6.30;99.90;;;;;;5094094;28;20493;-36
2023/04/28 05:26:38;;;;;;;23.08;16.58;;;6.30;99.90;;;;;;5076340;28;20359;-37
2023/04/28 05:29:04;;;;;;;22.50;16.83;;;6.40;99.90;;;;;;5095209;28;20303;-38
2023/04/28 05:31:30;;;;;;;23.02;17.02;;;6.40;99.90;;;;;;5094886;28;20051;-37
2023/04/28 05:33:56;;;;;;;23.48;16.98;;;6.40;99.90;;;;;;5094113;28;20055;-39
2023/04/28 05:36:21;;;;;;;23.92;16.60;;;6.40;99.90;;;;;;5094510;28;20048;-35
2023/04/28 05:38:47;;;;;;;27.33;17.05;;;6.40;99.90;;;;;;5094574;28;20047;-38
2023/04/28 05:41:13;;;;;;;24.80;16.05;;;6.40;99.90;;;;;;5093698;28;20143;-35
2023/04/28 05:43:39;;;;;;;24.98;17.90;;;6.40;99.90;;;;;;5093638;28;20096;-38
2023/04/28 05:46:04;;;;;;;22.70;18.00;;;6.40;99.90;;;;;;5095472;28;20040;-41
2023/04/28 05:48:30;;;;;;;21.35;16.92;;;6.40;99.90;;;;;;5092213;28;20394;-36
2023/04/28 05:50:56;;;;;;;23.40;17.73;;;6.40;99.90;;;;;;5083473;28;20051;-38
2023/04/28 05:53:22;;;;;;;22.92;16.95;;;6.50;99.90;;;;;;5093595;28;20078;-34
2023/04/28 05:55:48;;;;;;;22.95;16.33;;;6.40;99.90;;;;;;5094994;28;20185;-41
2023/04/28 05:58:13;;;;;;;25.55;17.70;;;6.50;99.90;;;;;;5094807;28;20644;-35
2023/04/28 06:00:39;;;;;;;23.52;17.17;;;6.50;99.90;;;;;;5098959;28;20040;-38
2023/04/28 06:03:07;;;;;;;20.80;17.08;;;6.50;99.90;;;;;;5099107;28;20043;-38
2023/04/28 06:05:33;;;;;;;26.75;18.27;;;6.50;99.90;;;;;;5079965;28;20397;-42
2023/04/28 06:07:58;;;;;;;24.60;16.92;;;6.50;99.90;;;;;;5099022;28;20035;-34
2023/04/28 06:10:25;;;;;;;25.40;17.95;;;6.60;99.90;;;;;;5098928;28;20047;-39
2023/04/28 06:12:51;;;;;;;22.33;17.08;;;6.60;99.90;;;;;;5097815;27;20067;-41
2023/04/28 06:15:16;;;;;;;24.75;18.15;;;6.60;99.90;;;;;;5098138;28;20220;-35
2023/04/28 06:17:42;;;;;;;22.15;17.35;;;6.60;99.90;;;;;;5098202;28;20390;-35
2023/04/28 06:20:10;;;;;;;22.52;17.38;;;6.70;99.90;;;;;;5097402;28;20039;-40
2023/04/28 06:22:36;;;;;;;26.35;18.38;;;6.80;99.90;;;;;;5098785;28;20040;-44
2023/04/28 06:25:01;;;;;;;24.73;17.80;;;6.90;99.90;;;;;;5098274;28;20397;-38
2023/04/28 06:27:27;;;;;;;20.52;15.02;;;6.90;99.90;;;;;;5113900;27;20078;-40
2023/04/28 06:29:52;;;;;;;20.63;16.80;;;7.00;99.90;;;;;;5097585;28;20074;-38
2023/04/28 06:32:18;;;;;;;25.48;17.75;;;7.10;99.90;;;;;;5109874;27;20786;-41
2023/04/28 06:34:44;;;;;;;21.17;16.10;;;7.20;99.90;;;;;;5100977;27;20054;-40
2023/04/28 06:37:10;;;;;;;24.02;16.73;;;7.30;99.90;;;;;;5104190;27;20067;-38
2023/04/28 06:39:35;;;;;;;23.50;17.63;;;7.50;99.90;;;;;;5097368;28;20671;-40
2023/04/28 06:42:02;;;;;;;21.77;16.23;;;7.50;99.90;;;;;;5097903;28;20039;-40
2023/04/28 06:44:27;;;;;;;20.92;15.50;;;7.60;99.90;;;;;;5097502;28;20447;-40
2023/04/28 06:46:53;;;;;;;23.00;16.83;;;7.70;99.90;;;;;;5097910;28;20630;-40
2023/04/28 06:49:18;;;;;;;19.67;16.27;;;7.80;99.90;;;;;;5097781;28;20146;-40
2023/04/28 06:51:44;;;;;;;22.58;16.00;;;7.80;99.90;;;;;;5096216;28;20051;-36
2023/04/28 06:54:10;;;;;;;19.88;15.93;;;7.80;99.90;;;;;;5099840;27;20358;-39
2023/04/28 06:56:36;;;;;;;22.58;17.65;;;7.80;99.90;;;;;;5103926;27;20069;-42
2023/04/28 06:59:02;;;;;;;20.10;15.75;;;7.80;99.90;;;;;;5091281;27;20409;-38
2023/04/28 07:01:27;;;;;;;19.88;15.68;;;7.80;99.90;;;;;;5091157;28;20520;-44
2023/04/28 07:03:53;;;;;;;19.63;15.30;;;7.80;99.90;;;;;;5083635;28;20051;-39
2023/04/28 07:06:19;;;;;;;19.77;15.55;;;7.80;99.90;;;;;;5086705;28;20098;-38
2023/04/28 07:08:45;;;;;;;19.48;15.85;;;7.80;99.90;;;;;;5077808;28;20093;-39
2023/04/28 07:11:10;;;;;;;19.92;14.98;;;7.90;99.90;;;;;;5094448;28;20047;-39
2023/04/28 07:13:36;;;;;;;19.33;15.73;;;7.90;99.90;;;;;;5094280;28;20077;-38
2023/04/28 07:16:04;;;;;;;21.17;15.85;;;8.00;99.90;;;;;;5093101;28;20054;-38
2023/04/28 07:18:30;;;;;;;18.88;15.43;;;8.00;99.90;;;;;;5096805;28;20047;-40
2023/04/28 07:20:55;;;;;;;19.35;16.10;;;8.00;99.90;;;;;;5096108;28;20839;-36
2023/04/28 07:23:21;;;;;;;21.35;14.68;;;8.10;99.90;;;;;;5095640;28;20051;-38
2023/04/28 07:25:46;;;;;;;20.23;16.13;;;8.20;99.90;;;;;;5094748;28;20091;-35
2023/04/28 07:28:13;;;;;;;22.13;14.98;;;8.20;99.90;;;;;;5096404;28;20097;-40
2023/04/28 07:30:39;;;;;;;19.30;15.40;;;8.20;99.90;;;;;;5095490;28;20093;-36
2023/04/28 07:33:04;;;;;;;21.38;15.73;;;8.30;99.90;;;;;;5096404;28;20051;-38
2023/04/28 07:35:31;;;;;;;18.38;14.95;;;8.30;99.90;;;;;;5095184;28;20047;-37
2023/04/28 07:37:57;;;;;;;20.52;15.73;;;8.30;99.90;;;;;;5096019;28;20386;-39
2023/04/28 07:40:23;;;;;;;19.48;16.10;;;8.30;99.90;;;;;;5094262;28;20877;-43
2023/04/28 07:42:49;;;;;;;19.65;15.35;;;8.30;99.90;;;;;;5095952;28;20092;-36
2023/04/28 07:45:15;;;;;;;21.80;16.60;;;8.30;99.90;;;;;;5077926;28;20060;-35
2023/04/28 07:47:41;;;;;;;18.10;15.55;;;8.30;99.90;;;;;;5085631;28;20070;-41
2023/04/28 07:50:07;;;;;;;18.75;15.35;;;8.20;99.90;;;;;;5084298;28;20495;-39
2023/04/28 07:52:33;;;;;;;21.67;15.38;;;8.20;99.90;;;;;;5089701;28;20051;-43
2023/04/28 07:54:59;;;;;;;23.15;16.88;;;8.20;99.90;;;;;;5088410;28;20047;-40
2023/04/28 07:57:25;;;;;;;23.00;16.75;;;8.20;99.90;;;;;;5085005;28;20464;-40
2023/04/28 07:59:51;;;;;;;21.73;16.63;;;8.20;99.90;;;;;;5094137;28;20513;-42
2023/04/28 08:02:19;;;;;;;19.27;16.13;;;8.30;99.90;;;;;;5088263;27;20210;-38
2023/04/28 08:04:45;;;;;;;22.52;16.83;;;8.30;99.90;;;;;;5084145;27;20051;-37
2023/04/28 08:07:12;;;;;;;20.38;17.35;;;8.40;99.90;;;;;;5083908;27;20126;-40
2023/04/28 08:09:38;;;;;;;20.45;15.57;;;8.40;99.90;;;;;;5092526;28;20176;-36
2023/04/28 08:12:04;;;;;;;22.27;16.75;;;8.50;99.90;;;;;;5086686;28;20040;-39
2023/04/28 08:14:30;;;;;;;22.13;15.68;;;8.60;99.90;;;;;;5079088;28;20032;-39
2023/04/28 08:16:56;;;;;;;20.10;14.50;;;8.70;99.90;;;;;;5071282;28;20493;-39
2023/04/28 08:19:22;;;;;;;23.08;16.23;;;8.70;99.90;;;;;;5076374;28;20059;-38
2023/04/28 08:21:48;;;;;;;21.73;16.08;;;8.90;99.90;;;;;;5110054;27;20051;-36
2023/04/28 08:24:13;;;;;;;19.23;15.73;;;9.00;99.90;;;;;;5091314;28;20048;-42
2023/04/28 08:26:39;;;;;;;31.77;15.98;;;9.20;99.90;;;;;;5093720;28;20276;-40
2023/04/28 08:29:05;;;;;;;19.83;15.40;;;9.40;99.90;;;;;;5094413;28;20405;-38
2023/04/28 08:31:31;;;;;;;16.92;14.55;;;9.50;99.90;;;;;;5094140;28;20150;-41
2023/04/28 08:33:57;;;;;;;18.65;14.02;;;9.70;99.90;;;;;;5093863;28;20047;-42
2023/04/28 08:36:25;;;;;;;17.92;15.10;;;9.90;99.90;;;;;;5076882;28;20062;-39
2023/04/28 08:38:51;;;;;;;17.38;13.95;;;10.00;99.90;;;;;;5100274;27;20052;-35
2023/04/28 08:41:18;;;;;;;19.40;14.68;;;10.10;99.90;;;;;;5081933;28;20873;-41
2023/04/28 08:43:44;;;;;;;17.42;14.02;;;10.10;99.90;;;;;;5109055;27;20043;-41
2023/04/28 08:46:10;;;;;;;19.17;15.88;;;10.20;99.90;;;;;;5104212;27;20070;-40
2023/04/28 08:48:41;;;;;;;18.85;15.15;;;10.20;99.90;;;;;;5104368;27;21445;-40
2023/04/28 08:51:07;;;;;;;20.00;14.02;;;10.20;99.90;;;;;;5093173;28;20118;-42
2023/04/28 08:53:37;;;;;;;19.35;17.20;;;10.20;99.90;;;;;;5074402;28;20043;-42
2023/04/28 08:56:05;;;;;;;21.40;15.45;;;10.20;99.90;;;;;;5104879;27;20049;-37
2023/04/28 08:58:33;;;;;;;22.23;14.18;;;10.20;99.90;;;;;;5099363;27;20042;-36
2023/04/28 09:01:02;;;;;;;19.50;14.95;;;10.20;99.90;;;;;;5102357;27;20079;-42
2023/04/28 09:03:27;;;;;;;19.70;15.90;;;10.20;99.90;;;;;;5114610;27;20103;-42
2023/04/28 09:05:53;;;;;;;18.63;15.60;;;10.20;99.90;;;;;;5094373;28;20472;-40
2023/04/28 09:08:19;;;;;;;20.88;14.63;;;10.20;99.90;;;;;;5080389;28;20410;-38
2023/04/28 09:10:45;;;;;;;16.15;14.13;;;10.20;99.90;;;;;;5109899;27;20066;-42
2023/04/28 09:13:24;;;;;;;17.88;14.40;;;10.20;99.90;;;;;;5112640;27;20145;-41
2023/04/28 09:15:50;;;;;;;17.25;14.27;;;10.20;99.90;;;;;;5101040;28;20154;-42
2023/04/28 09:18:16;;;;;;;17.58;14.02;;;10.30;99.90;;;;;;5102206;28;20477;-35
2023/04/28 09:20:43;;;;;;;18.77;14.15;;;10.40;99.90;;;;;;5092653;28;20093;-36
2023/04/28 09:23:12;;;;;;;14.93;13.38;;;10.50;99.90;;;;;;5079012;28;20056;-39
2023/04/28 09:25:37;;;;;;;16.58;14.85;;;10.70;99.90;;;;;;5118574;27;20066;-40
2023/04/28 09:28:20;;;;;;;17.90;15.95;;;10.90;99.90;;;;;;5107319;28;20434;-42
2023/04/28 09:30:46;;;;;;;17.52;14.90;;;11.20;99.90;;;;;;5099480;28;20047;-39
2023/04/28 09:33:12;;;;;;;17.50;15.68;;;11.50;99.90;;;;;;5112026;27;20540;-36
2023/04/28 09:35:44;;;;;;;15.00;13.50;;;11.90;99.90;;;;;;5101695;27;20174;-41
2023/04/28 09:38:09;;;;;;;15.70;14.07;;;12.10;99.90;;;;;;5092201;27;20058;-43
2023/04/28 09:41:01;;;;;;;15.57;13.98;;;12.40;99.90;;;;;;5103495;27;20047;-41
2023/04/28 09:43:32;;;;;;;16.90;14.18;;;12.60;99.90;;;;;;5098045;27;20040;-43
2023/04/28 09:46:01;;;;;;;15.88;13.65;;;12.90;99.90;;;;;;5104276;27;20062;-39
2023/04/28 09:48:32;;;;;;;21.15;14.95;;;13.10;99.90;;;;;;5100985;27;20047;-43
2023/04/28 09:51:00;;;;;;;16.88;13.27;;;13.40;99.90;;;;;;5081462;27;20683;-41
2023/04/28 09:53:27;;;;;;;27.67;16.63;;;13.60;99.90;;;;;;5108047;27;20070;-39
2023/04/28 09:55:55;;;;;;;16.38;12.30;;;13.70;99.90;;;;;;5099377;27;20072;-39
2023/04/28 09:58:22;;;;;;;16.33;12.55;;;13.80;99.90;;;;;;5107507;27;20055;-41
2023/04/28 10:00:53;;;;;;;14.05;12.55;;;13.90;99.90;;;;;;5100489;27;20044;-39
2023/04/28 10:03:27;;;;;;;14.43;12.98;;;14.00;99.90;;;;;;5101080;27;20066;-43
2023/04/28 10:05:53;;;;;;;13.50;11.80;;;14.00;99.90;;;;;;5096435;27;20043;-41
2023/04/28 10:08:20;;;;;;;13.30;11.00;;;14.00;99.90;;;;;;5111194;27;20589;-40
2023/04/28 10:10:54;;;;;;;14.85;12.43;;;14.10;99.90;;;;;;5104134;27;20039;-40
2023/04/28 10:13:23;;;;;;;12.60;11.32;;;14.00;99.90;;;;;;5095701;28;20049;-41
2023/04/28 10:15:50;;;;;;;17.13;12.43;;;14.00;99.90;;;;;;5097248;28;20043;-40
2023/04/28 10:18:16;;;;;;;15.52;12.35;;;14.10;99.90;;;;;;5097888;28;20109;-41
2023/04/28 10:20:48;;;;;;;15.88;11.93;;;14.00;99.90;;;;;;5097666;28;20073;-42
2023/04/28 10:23:45;;;;;;;13.85;11.32;;;14.00;99.90;;;;;;5097395;28;20043;-40
2023/04/28 10:26:13;;;;;;;13.80;11.93;;;14.00;99.90;;;;;;5079985;28;20297;-40
2023/04/28 10:28:49;;;;;;;12.23;10.85;;;14.00;99.90;;;;;;5108385;27;20051;-35
2023/04/28 10:31:20;;;;;;;13.85;11.70;;;14.00;99.90;;;;;;5094695;27;20063;-43
2023/04/28 10:33:46;;;;;;;13.05;11.20;;;14.10;99.90;;;;;;5112051;27;20049;-42
2023/04/28 10:36:49;;;;;;;14.70;12.13;;;14.10;99.90;;;;;;5106140;27;20622;-42
2023/04/28 10:39:15;;;;;;;13.38;11.95;;;14.10;99.90;;;;;;5086473;28;20044;-40
2023/04/28 10:41:41;;;;;;;12.85;11.40;;;14.10;99.90;;;;;;5097153;28;20051;-43
2023/04/28 10:44:28;;;;;;;12.57;11.30;;;14.20;99.90;;;;;;5098051;27;20606;-41
2023/04/28 10:47:02;;;;;;;13.77;12.23;;;14.10;99.90;;;;;;5100155;27;20051;-41
2023/04/28 10:50:00;;;;;;;13.85;12.38;;;14.10;99.90;;;;;;5107480;27;20058;-40
2023/04/28 10:52:38;;;;;;;15.43;11.93;;;14.10;99.90;;;;;;5100675;27;20481;-40
2023/04/28 10:55:35;;;;;;;12.35;10.80;;;14.10;99.90;;;;;;5112685;27;20490;-40
2023/04/28 10:58:18;;;;;;;12.25;10.95;;;14.10;99.90;;;;;;5095034;28;20153;-37
2023/04/28 11:00:46;;;;;;;13.25;11.85;;;14.10;99.90;;;;;;5077946;28;20060;-40
2023/04/28 11:03:50;;;;;;;14.10;11.55;;;14.20;99.90;;;;;;5094377;27;20379;-37
2023/04/28 11:06:39;;;;;;;14.50;12.45;;;14.30;99.90;;;;;;5092546;27;20049;-41
2023/04/28 11:09:14;;;;;;;13.00;11.48;;;14.50;99.90;;;;;;5096147;28;20063;-44
2023/04/28 11:12:02;;;;;;;13.02;11.48;;;14.60;99.90;;;;;;5097127;28;20199;-41
2023/04/28 11:14:28;;;;;;;14.20;12.23;;;14.60;99.90;;;;;;5110187;27;20060;-42
2023/04/28 11:17:00;;;;;;;13.95;12.15;;;14.50;99.90;;;;;;5097737;27;20055;-42
2023/04/28 11:19:27;;;;;;;14.98;11.95;;;14.40;99.90;;;;;;5098662;27;20155;-37
2023/04/28 11:21:55;;;;;;;12.10;10.80;;;14.50;99.90;;;;;;5106384;27;20422;-44
2023/04/28 11:24:24;;;;;;;15.63;12.32;;;14.50;99.90;;;;;;5095992;28;20047;-39
2023/04/28 11:26:51;;;;;;;12.20;11.00;;;14.50;99.90;;;;;;5103212;27;20508;-44
2023/04/28 11:29:17;;;;;;;12.45;11.20;;;14.40;99.90;;;;;;5102968;27;20056;-43
2023/04/28 11:31:50;;;;;;;13.07;11.77;;;14.40;99.90;;;;;;5100698;27;20582;-42
2023/04/28 11:34:23;;;;;;;;;;;14.30;99.90;;;;;;5079513;28;20047;-41
2023/04/28 11:36:48;;;;;;;13.70;12.23;;;14.10;99.90;;;;;;5106661;27;20370;-41
2023/04/28 11:39:14;;;;;;;14.50;12.60;;;14.10;99.90;;;;;;5098686;27;20421;-41
2023/04/28 11:41:44;;;;;;;14.50;13.02;;;14.00;99.90;;;;;;5102822;27;20058;-39
2023/04/28 11:44:23;;;;;;;16.05;14.05;;;13.90;99.90;;;;;;5110063;27;20078;-40
2023/04/28 11:46:54;;;;;;;17.80;14.52;;;13.80;99.90;;;;;;5097030;27;20043;-43
2023/04/28 11:49:23;;;;;;;17.67;15.80;;;13.70;99.90;;;;;;5095630;28;20141;-40
2023/04/28 11:51:52;;;;;;;16.90;15.18;;;13.60;99.90;;;;;;5095957;28;20043;-40
2023/04/28 11:54:23;;;;;;;15.50;14.00;;;13.50;99.90;;;;;;5096190;28;20054;-41
2023/04/28 11:56:49;;;;;;;15.80;14.18;;;13.40;99.90;;;;;;5111464;27;20481;-44
2023/04/28 11:59:15;;;;;;;17.00;15.32;;;13.40;99.90;;;;;;5095306;28;20508;-37
2023/04/28 12:01:45;;;;;;;16.25;14.65;;;13.40;99.90;;;;;;5099886;27;20115;-42
2023/04/28 12:04:12;;;;;;;16.60;14.85;;;13.40;99.90;;;;;;5095138;28;20086;-42
2023/04/28 12:06:39;;;;;;;17.60;15.82;;;13.50;99.90;;;;;;5096710;28;20053;-40
2023/04/28 12:09:15;;;;;;;20.08;16.77;;;13.50;99.90;;;;;;5085664;28;20509;-41
2023/04/28 12:11:59;;;;;;;16.55;15.07;;;13.50;99.90;;;;;;5084026;28;20085;-39
2023/04/28 12:14:25;;;;;;;20.52;18.42;;;13.50;99.90;;;;;;5096207;28;20055;-43
2023/04/28 12:16:51;;;;;;;21.65;18.40;;;13.50;99.90;;;;;;5097064;28;20480;-36
2023/04/28 12:19:18;;;;;;;20.77;18.67;;;13.50;99.90;;;;;;5077892;28;20546;-44
2023/04/28 12:22:01;;;;;;;22.02;19.70;;;13.40;99.90;;;;;;5095907;28;20500;-45
2023/04/28 12:24:27;;;;;;;22.40;20.23;;;13.40;99.90;;;;;;5068103;28;20050;-43
2023/04/28 12:26:53;;;;;;;20.88;18.98;;;13.30;99.90;;;;;;5095533;28;20050;-40
2023/04/28 12:29:38;;;;;;;21.33;19.35;;;13.30;99.90;;;;;;5076934;28;20039;-36
2023/04/28 12:32:09;;;;;;;20.13;18.17;;;13.30;99.90;;;;;;5095495;28;20089;-42
2023/04/28 12:34:35;;;;;;;23.35;21.00;;;13.20;99.90;;;;;;5095320;28;20449;-43